createdAt,value
2023-08-17T00:02:44.865Z,24.79
2023-08-17T00:07:01.879Z,24.76
2023-08-17T00:11:15.129Z,24.74
2023-08-17T00:15:23.914Z,24.75
2023-08-17T00:19:15.571Z,24.76
2023-08-17T00:23:38.506Z,24.64
2023-08-17T00:28:02.417Z,24.58
2023-08-17T00:31:59.914Z,24.53
2023-08-17T00:36:19.799Z,24.47
2023-08-17T00:40:33.652Z,24.45
2023-08-17T00:44:42.765Z,24.45
2023-08-17T00:48:49.469Z,24.47
2023-08-17T00:53:13.507Z,24.49
2023-08-17T00:57:37.399Z,24.46
2023-08-17T01:01:58.831Z,24.50
2023-08-17T01:06:15.113Z,24.46
2023-08-17T01:10:39.976Z,24.46
2023-08-17T01:14:40.315Z,24.46
2023-08-17T01:19:10.503Z,24.44
2023-08-17T01:23:34.615Z,24.41
2023-08-17T01:27:51.053Z,24.35
2023-08-17T01:31:33.584Z,24.31
2023-08-17T01:36:05.221Z,24.30
2023-08-17T01:40:20.157Z,24.24
2023-08-17T01:44:44.274Z,24.15
2023-08-17T01:48:58.369Z,24.11
2023-08-17T01:53:14.932Z,24.08
2023-08-17T01:57:31.495Z,23.99
2023-08-17T02:01:46.992Z,23.92
2023-08-17T02:06:00.917Z,23.82
2023-08-17T02:10:24.764Z,23.74
2023-08-17T02:14:41.727Z,23.63
2023-08-17T02:19:05.776Z,23.60
2023-08-17T02:23:22.496Z,23.57
2023-08-17T02:27:33.963Z,23.29
2023-08-17T02:31:48.301Z,23.10
2023-08-17T02:36:02.381Z,23.05
2023-08-17T02:40:27.245Z,22.99
2023-08-17T02:44:51.100Z,22.87
2023-08-17T02:48:54.182Z,22.82
2023-08-17T02:53:09.435Z,22.80
2023-08-17T02:57:33.438Z,22.78
2023-08-17T03:01:57.471Z,22.77
2023-08-17T03:06:14.311Z,22.66
2023-08-17T03:10:20.800Z,22.49
2023-08-17T03:14:37.720Z,22.41
2023-08-17T03:18:54.649Z,22.37
2023-08-17T03:23:18.745Z,22.31
2023-08-17T03:27:42.663Z,22.23
2023-08-17T03:32:05.480Z,22.14
2023-08-17T03:36:29.356Z,22.07
2023-08-17T03:40:47.094Z,22.03
2023-08-17T03:45:11.180Z,21.99
2023-08-17T03:49:35.173Z,22.00
2023-08-17T03:53:45.730Z,22.02
2023-08-17T03:58:09.607Z,22.04
2023-08-17T04:02:26.001Z,22.01
2023-08-17T04:06:41.731Z,21.97
2023-08-17T04:11:05.789Z,22.01
2023-08-17T04:15:29.616Z,22.05
2023-08-17T04:19:53.758Z,22.11
2023-08-17T04:24:17.698Z,22.19
2023-08-17T04:28:34.151Z,22.24
2023-08-17T04:32:57.818Z,22.31
2023-08-17T04:37:20.790Z,22.40
2023-08-17T04:41:44.762Z,22.46
2023-08-17T04:45:55.428Z,22.53
2023-08-17T04:50:12.073Z,22.59
2023-08-17T04:54:36.044Z,22.67
2023-08-17T04:58:47.825Z,22.76
2023-08-17T05:02:48.145Z,22.85
2023-08-17T05:07:10.909Z,22.90
2023-08-17T05:11:34.810Z,22.98
2023-08-17T05:15:58.805Z,23.09
2023-08-17T05:20:15.666Z,23.18
2023-08-17T05:24:37.511Z,23.29
2023-08-17T05:28:55.224Z,23.45
2023-08-17T05:33:05.133Z,23.59
2023-08-17T05:37:29.077Z,23.72
2023-08-17T05:41:46.674Z,23.84
2023-08-17T05:45:53.977Z,23.94
2023-08-17T05:50:17.905Z,24.03
2023-08-17T05:54:41.812Z,24.09
2023-08-17T05:58:57.290Z,24.13
2023-08-17T06:03:02.550Z,24.20
2023-08-17T06:07:18.566Z,24.27
2023-08-17T06:11:28.269Z,24.37
2023-08-17T06:15:53.188Z,24.47
2023-08-17T06:20:11.085Z,24.69
2023-08-17T06:24:17.991Z,24.88
2023-08-17T06:28:14.724Z,25.11
2023-08-17T06:32:12.373Z,25.32
2023-08-17T06:36:19.523Z,25.53
2023-08-17T06:40:13.258Z,25.64
2023-08-17T06:44:28.147Z,25.78
2023-08-17T06:48:22.428Z,25.96
2023-08-17T06:52:29.249Z,26.10
2023-08-17T06:56:21.511Z,26.23
2023-08-17T07:00:12.988Z,26.32
2023-08-17T07:03:56.997Z,26.42
2023-08-17T07:07:32.859Z,26.52
2023-08-17T07:11:09.861Z,26.63
2023-08-17T07:14:53.289Z,26.76
2023-08-17T07:18:31.903Z,26.93
2023-08-17T07:22:06.991Z,27.09
2023-08-17T07:25:58.838Z,27.23
2023-08-17T07:29:44.569Z,27.39
2023-08-17T07:33:16.698Z,27.59
2023-08-17T07:36:50.821Z,27.85
2023-08-17T07:40:24.526Z,28.03
2023-08-17T07:43:53.368Z,28.27
2023-08-17T07:47:24.301Z,28.38
2023-08-17T07:50:50.799Z,28.49
2023-08-17T07:54:26.756Z,28.72
2023-08-17T07:57:48.542Z,28.81
2023-08-17T08:01:21.944Z,29.01
2023-08-17T08:04:59.624Z,29.04
2023-08-17T08:08:18.838Z,29.04
2023-08-17T08:11:40.881Z,29.11
2023-08-17T08:15:11.816Z,29.10
2023-08-17T08:18:26.519Z,29.11
2023-08-17T08:22:05.253Z,29.05
2023-08-17T08:25:20.732Z,29.05
2023-08-17T08:28:45.316Z,29.05
2023-08-17T08:32:17.096Z,29.06
2023-08-17T08:35:54.961Z,29.09
2023-08-17T08:39:20.887Z,29.02
2023-08-17T08:42:53.604Z,28.99
2023-08-17T08:50:13.635Z,29.09
2023-08-17T08:53:55.012Z,29.27
2023-08-17T08:57:12.575Z,29.52
2023-08-17T09:00:38.649Z,29.60
2023-08-17T09:03:55.216Z,29.65
2023-08-17T09:07:44.357Z,29.74
2023-08-17T09:11:11.827Z,29.73
2023-08-17T09:14:29.702Z,29.76
2023-08-17T09:17:58.956Z,30.14
2023-08-17T09:21:35.211Z,30.57
2023-08-17T09:24:52.117Z,31.00
2023-08-17T09:28:17.769Z,31.27
2023-08-17T09:31:35.111Z,31.53
2023-08-17T09:34:49.423Z,31.67
2023-08-17T09:38:01.607Z,31.79
2023-08-17T09:41:27.683Z,31.86
2023-08-17T09:44:43.542Z,31.85
2023-08-17T09:48:12.848Z,31.81
2023-08-17T09:51:24.714Z,31.97
2023-08-17T09:54:33.027Z,32.05
2023-08-17T09:57:41.600Z,32.31
2023-08-17T10:01:02.080Z,32.63
2023-08-17T10:04:16.985Z,32.76
2023-08-17T10:07:42.300Z,32.94
2023-08-17T10:10:56.428Z,32.98
2023-08-17T10:14:12.610Z,33.21
2023-08-17T10:17:43.045Z,33.44
2023-08-17T10:20:55.391Z,33.74
2023-08-17T10:24:01.909Z,34.03
2023-08-17T10:27:10.405Z,34.30
2023-08-17T10:30:13.729Z,34.49
2023-08-17T10:33:17.953Z,34.70
2023-08-17T10:36:22.256Z,34.85
2023-08-17T10:39:29.477Z,34.97
2023-08-17T10:42:37.693Z,34.93
2023-08-17T10:45:40.915Z,34.54
2023-08-17T10:48:47.543Z,34.30
2023-08-17T10:52:04.901Z,34.35
2023-08-17T10:55:13.870Z,34.55
2023-08-17T10:58:17.347Z,34.61
2023-08-17T11:01:42.185Z,34.75
2023-08-17T11:04:54.021Z,34.89
2023-08-17T11:07:57.263Z,35.00
2023-08-17T11:11:05.173Z,35.07
2023-08-17T11:14:08.331Z,35.13
2023-08-17T11:17:11.346Z,35.05
2023-08-17T11:20:15.702Z,34.91
2023-08-17T11:23:20.041Z,34.95
2023-08-17T11:26:26.601Z,34.87
2023-08-17T11:29:33.301Z,34.76
2023-08-17T11:32:39.091Z,34.68
2023-08-17T11:35:42.496Z,34.56
2023-08-17T11:38:48.830Z,34.28
2023-08-17T11:41:53.556Z,34.20
2023-08-17T11:44:57.598Z,33.94
2023-08-17T11:48:04.988Z,33.81
2023-08-17T11:51:08.262Z,33.79
2023-08-17T11:54:13.504Z,33.71
2023-08-17T11:57:16.797Z,33.60
2023-08-17T12:00:22.520Z,33.51
2023-08-17T12:03:26.270Z,33.22
2023-08-17T12:06:29.796Z,33.08
2023-08-17T12:09:36.587Z,33.05
2023-08-17T12:12:42.163Z,33.07
2023-08-17T12:15:46.095Z,33.11
2023-08-17T12:18:53.533Z,33.05
2023-08-17T12:21:59.126Z,32.92
2023-08-17T12:25:04.879Z,32.89
2023-08-17T12:28:10.548Z,32.80
2023-08-17T12:31:21.944Z,32.80
2023-08-17T12:34:25.355Z,32.74
2023-08-17T12:37:30.984Z,32.78
2023-08-17T12:40:34.288Z,32.81
2023-08-17T12:43:40.106Z,32.75
2023-08-17T12:46:57.927Z,32.69
2023-08-17T12:50:04.951Z,32.62
2023-08-17T12:53:11.367Z,32.54
2023-08-17T12:56:17.966Z,32.45
2023-08-17T12:59:23.698Z,32.37
2023-08-17T13:02:32.247Z,32.34
2023-08-17T13:05:41.672Z,32.30
2023-08-17T13:08:47.964Z,32.27
2023-08-17T13:11:55.779Z,32.21
2023-08-17T13:15:02.196Z,32.24
2023-08-17T13:18:08.288Z,32.38
2023-08-17T13:21:16.967Z,32.50
2023-08-17T13:24:23.128Z,32.47
2023-08-17T13:27:29.400Z,32.36
2023-08-17T13:30:35.796Z,32.31
2023-08-17T13:33:45.256Z,32.21
2023-08-17T13:36:51.681Z,32.20
2023-08-17T13:39:57.306Z,32.23
2023-08-17T13:43:04.408Z,32.20
2023-08-17T13:46:19.160Z,32.17
2023-08-17T13:49:22.769Z,32.15
2023-08-17T13:52:28.615Z,32.18
2023-08-17T13:55:35.089Z,32.30
2023-08-17T13:58:41.380Z,32.34
2023-08-17T14:01:50.034Z,32.34
2023-08-17T14:04:56.076Z,32.39
2023-08-17T14:08:07.739Z,32.35
2023-08-17T14:11:13.833Z,32.29
2023-08-17T14:14:24.620Z,32.29
2023-08-17T14:17:30.982Z,32.26
2023-08-17T14:20:39.854Z,32.29
2023-08-17T14:23:53.476Z,32.25
2023-08-17T14:26:59.458Z,32.20
2023-08-17T14:30:08.318Z,32.06
2023-08-17T14:33:16.464Z,32.00
2023-08-17T14:36:20.975Z,31.97
2023-08-17T14:39:30.040Z,31.88
2023-08-17T14:42:36.703Z,31.83
2023-08-17T14:45:43.318Z,31.73
2023-08-17T14:48:49.686Z,31.65
2023-08-17T14:51:56.529Z,31.64
2023-08-17T14:55:05.827Z,31.65
2023-08-17T14:58:14.870Z,31.62
2023-08-17T15:01:20.425Z,31.58
2023-08-17T15:04:27.234Z,31.61
2023-08-17T15:07:36.817Z,31.61
2023-08-17T15:10:47.091Z,31.62
2023-08-17T15:13:58.747Z,31.59
2023-08-17T15:17:13.626Z,31.53
2023-08-17T15:20:20.068Z,31.46
2023-08-17T15:23:35.754Z,31.41
2023-08-17T15:26:39.402Z,31.39
2023-08-17T15:29:48.246Z,31.35
2023-08-17T15:32:56.684Z,31.34
2023-08-17T15:36:02.423Z,31.32
2023-08-17T15:39:16.768Z,31.32
2023-08-17T15:42:22.880Z,31.32
2023-08-17T15:45:29.058Z,31.33
2023-08-17T15:48:40.739Z,31.31
2023-08-17T15:51:46.712Z,31.28
2023-08-17T15:55:02.008Z,31.19
2023-08-17T15:58:10.899Z,31.10
2023-08-17T16:01:17.244Z,31.05
2023-08-17T16:04:26.663Z,30.99
2023-08-17T16:07:33.090Z,30.91
2023-08-17T16:10:39.016Z,30.83
2023-08-17T16:13:51.079Z,30.75
2023-08-17T16:16:57.814Z,30.70
2023-08-17T16:20:08.593Z,30.69
2023-08-17T16:23:22.311Z,30.68
2023-08-17T16:26:34.402Z,30.64
2023-08-17T16:29:43.996Z,30.57
2023-08-17T16:33:00.474Z,30.50
2023-08-17T16:36:15.908Z,30.39
2023-08-17T16:39:45.810Z,30.25
2023-08-17T16:43:12.632Z,30.13
2023-08-17T16:46:21.883Z,30.06
2023-08-17T16:49:35.012Z,29.98
2023-08-17T16:52:46.778Z,29.89
2023-08-17T16:55:56.137Z,29.81
2023-08-17T16:59:08.572Z,29.73
2023-08-17T17:02:20.157Z,29.60
2023-08-17T17:05:33.831Z,29.49
2023-08-17T17:08:43.443Z,29.38
2023-08-17T17:12:01.020Z,29.24
2023-08-17T17:15:28.905Z,29.07
2023-08-17T17:18:51.637Z,28.98
2023-08-17T17:22:21.087Z,28.89
2023-08-17T17:25:34.653Z,28.82
2023-08-17T17:28:53.922Z,28.72
2023-08-17T17:32:14.221Z,28.63
2023-08-17T17:35:37.608Z,28.52
2023-08-17T17:38:53.252Z,28.39
2023-08-17T17:42:25.219Z,28.22
2023-08-17T17:46:01.190Z,28.09
2023-08-17T17:49:34.327Z,27.95
2023-08-17T17:53:23.213Z,27.82
2023-08-17T17:56:59.764Z,27.67
2023-08-17T18:00:33.482Z,27.54
2023-08-17T18:04:15.388Z,27.45
2023-08-17T18:07:52.286Z,27.36
2023-08-17T18:11:28.367Z,27.26
2023-08-17T18:15:01.462Z,27.16
2023-08-17T18:18:23.652Z,27.01
2023-08-17T18:21:59.277Z,26.80
2023-08-17T18:25:33.044Z,26.69
2023-08-17T18:29:10.494Z,26.62
2023-08-17T18:32:40.729Z,26.58
2023-08-17T18:36:22.005Z,26.56
2023-08-17T18:39:58.885Z,26.51
2023-08-17T18:43:46.190Z,26.49
2023-08-17T18:47:17.472Z,26.45
2023-08-17T18:51:00.463Z,26.45
2023-08-17T18:54:22.140Z,26.39
2023-08-17T18:58:03.512Z,26.25
2023-08-17T19:01:37.569Z,26.22
2023-08-17T19:05:23.112Z,26.23
2023-08-17T19:09:10.258Z,26.20
2023-08-17T19:12:45.868Z,26.16
2023-08-17T19:16:32.609Z,26.11
2023-08-17T19:20:07.187Z,26.01
2023-08-17T19:23:35.752Z,25.93
2023-08-17T19:27:21.644Z,25.86
2023-08-17T19:31:17.229Z,25.72
2023-08-17T19:34:48.589Z,25.62
2023-08-17T19:38:35.351Z,25.50
2023-08-17T19:42:24.628Z,25.38
2023-08-17T19:46:14.021Z,25.27
2023-08-17T19:50:19.037Z,25.22
2023-08-17T19:54:21.017Z,25.18
2023-08-17T19:57:55.895Z,25.08
2023-08-17T20:02:05.272Z,24.92
2023-08-17T20:06:08.931Z,24.81
2023-08-17T20:10:00.678Z,24.73
2023-08-17T20:14:16.721Z,24.62
2023-08-17T20:17:43.644Z,24.48
2023-08-17T20:21:34.266Z,24.39
2023-08-17T20:25:30.203Z,24.30
2023-08-17T20:29:24.798Z,24.26
2023-08-17T20:33:28.436Z,24.21
2023-08-17T20:37:46.047Z,24.19
2023-08-17T20:42:01.513Z,24.08
2023-08-17T20:46:11.529Z,24.01
2023-08-17T20:50:17.732Z,23.95
2023-08-17T20:54:24.365Z,23.92
2023-08-17T20:58:41.691Z,23.93
2023-08-17T21:03:03.054Z,23.91
2023-08-17T21:07:15.688Z,23.89
2023-08-17T21:11:28.666Z,23.83
2023-08-17T21:15:33.810Z,23.66
2023-08-17T21:19:56.614Z,23.65
2023-08-17T21:24:01.842Z,23.67
2023-08-17T21:28:05.682Z,23.67
2023-08-17T21:32:08.297Z,23.64
2023-08-17T21:36:14.168Z,23.61
2023-08-17T21:40:08.443Z,23.63
2023-08-17T21:44:32.399Z,23.57
2023-08-17T21:48:56.361Z,23.51
2023-08-17T21:53:13.348Z,23.50
2023-08-17T21:57:09.749Z,23.52
2023-08-17T22:01:33.563Z,23.55
2023-08-17T22:05:48.714Z,23.56
2023-08-17T22:09:56.829Z,23.53
2023-08-17T22:14:13.341Z,23.51
2023-08-17T22:18:05.241Z,23.44
2023-08-17T22:21:13.942Z,23.44
2023-08-17T22:24:32.135Z,23.44
2023-08-17T22:27:41.069Z,23.37
2023-08-17T22:30:47.870Z,23.25
2023-08-17T22:33:57.447Z,23.17
2023-08-17T22:38:09.449Z,23.03
2023-08-17T22:42:32.348Z,22.88
2023-08-17T22:46:50.902Z,22.75
2023-08-17T22:50:48.240Z,22.61
2023-08-17T22:55:12.243Z,22.63
2023-08-17T22:59:25.284Z,22.70
2023-08-17T23:03:36.918Z,22.69
2023-08-17T23:08:00.889Z,22.77
2023-08-17T23:12:07.829Z,22.79
2023-08-17T23:16:25.018Z,22.84
2023-08-17T23:20:46.887Z,22.86
2023-08-17T23:24:49.479Z,22.77
2023-08-17T23:29:13.420Z,22.81
2023-08-17T23:33:33.820Z,22.81
2023-08-17T23:37:56.117Z,22.63
2023-08-17T23:42:20.135Z,22.21
2023-08-17T23:46:37.687Z,21.98
2023-08-17T23:51:01.665Z,21.99
2023-08-17T23:55:25.609Z,22.04
2023-08-17T23:59:49.564Z,22.01
